sensor_id;sensor_type;location;lat;lon;timestamp;temperature;humidity
22716;DHT22;11525;51.152;4.456;2023-05-08T00:01:08;16.30;99.90
22716;DHT22;11525;51.152;4.456;2023-05-08T00:03:34;16.20;99.90
22716;DHT22;11525;51.152;4.456;2023-05-08T00:06:03;16.20;99.90
22716;DHT22;11525;51.152;4.456;2023-05-08T00:08:30;16.20;99.90
22716;DHT22;11525;51.152;4.456;2023-05-08T00:10:55;16.10;99.90
22716;DHT22;11525;51.152;4.456;2023-05-08T00:13:22;16.10;99.90
22716;DHT22;11525;51.152;4.456;2023-05-08T00:15:48;16.10;99.90
22716;DHT22;11525;51.152;4.456;2023-05-08T00:18:14;16.00;99.90
22716;DHT22;11525;51.152;4.456;2023-05-08T00:20:40;16.00;99.90
22716;DHT22;11525;51.152;4.456;2023-05-08T00:23:06;16.00;99.90
22716;DHT22;11525;51.152;4.456;2023-05-08T00:25:32;16.00;99.90
22716;DHT22;11525;51.152;4.456;2023-05-08T00:27:59;15.90;99.90
22716;DHT22;11525;51.152;4.456;2023-05-08T00:30:25;15.80;99.90
22716;DHT22;11525;51.152;4.456;2023-05-08T00:32:50;15.80;99.90
22716;DHT22;11525;51.152;4.456;2023-05-08T00:35:16;15.60;99.90
22716;DHT22;11525;51.152;4.456;2023-05-08T00:37:42;15.60;99.90
22716;DHT22;11525;51.152;4.456;2023-05-08T00:40:09;15.60;99.90
22716;DHT22;11525;51.152;4.456;2023-05-08T00:42:35;15.60;99.90
22716;DHT22;11525;51.152;4.456;2023-05-08T00:45:02;15.50;99.90
22716;DHT22;11525;51.152;4.456;2023-05-08T00:47:28;15.50;99.90
22716;DHT22;11525;51.152;4.456;2023-05-08T00:49:55;15.40;99.90
22716;DHT22;11525;51.152;4.456;2023-05-08T00:52:20;15.40;99.90
22716;DHT22;11525;51.152;4.456;2023-05-08T00:54:47;15.30;99.90
22716;DHT22;11525;51.152;4.456;2023-05-08T00:57:14;15.30;99.90
22716;DHT22;11525;51.152;4.456;2023-05-08T00:59:41;15.30;99.90
22716;DHT22;11525;51.152;4.456;2023-05-08T01:02:08;15.30;99.90
22716;DHT22;11525;51.152;4.456;2023-05-08T01:04:34;15.20;99.90
22716;DHT22;11525;51.152;4.456;2023-05-08T01:07:02;15.30;99.90
22716;DHT22;11525;51.152;4.456;2023-05-08T01:09:27;15.20;99.90
22716;DHT22;11525;51.152;4.456;2023-05-08T01:14:56;15.20;99.90
22716;DHT22;11525;51.152;4.456;2023-05-08T01:22:52;15.10;99.90
22716;DHT22;11525;51.152;4.456;2023-05-08T01:31:14;14.90;99.90
22716;DHT22;11525;51.152;4.456;2023-05-08T01:34:02;14.90;99.90
22716;DHT22;11525;51.152;4.456;2023-05-08T01:36:40;14.80;99.90
22716;DHT22;11525;51.152;4.456;2023-05-08T01:39:20;14.80;99.90
22716;DHT22;11525;51.152;4.456;2023-05-08T01:42:00;14.80;99.90
22716;DHT22;11525;51.152;4.456;2023-05-08T01:44:43;14.80;99.90
22716;DHT22;11525;51.152;4.456;2023-05-08T01:47:10;14.80;99.90
22716;DHT22;11525;51.152;4.456;2023-05-08T01:49:45;14.80;99.90
22716;DHT22;11525;51.152;4.456;2023-05-08T01:52:25;14.80;99.90
22716;DHT22;11525;51.152;4.456;2023-05-08T01:55:00;14.70;99.90
22716;DHT22;11525;51.152;4.456;2023-05-08T01:57:29;14.70;99.90
22716;DHT22;11525;51.152;4.456;2023-05-08T01:59:59;14.60;99.90
22716;DHT22;11525;51.152;4.456;2023-05-08T02:02:27;14.50;99.90
22716;DHT22;11525;51.152;4.456;2023-05-08T02:04:54;14.50;99.90
22716;DHT22;11525;51.152;4.456;2023-05-08T02:07:21;14.50;99.90
22716;DHT22;11525;51.152;4.456;2023-05-08T02:09:48;14.40;99.90
22716;DHT22;11525;51.152;4.456;2023-05-08T02:12:16;14.50;99.90
22716;DHT22;11525;51.152;4.456;2023-05-08T02:14:45;14.50;99.90
22716;DHT22;11525;51.152;4.456;2023-05-08T02:17:15;14.50;99.90
22716;DHT22;11525;51.152;4.456;2023-05-08T02:19:42;14.50;99.90
22716;DHT22;11525;51.152;4.456;2023-05-08T02:22:09;14.40;99.90
22716;DHT22;11525;51.152;4.456;2023-05-08T02:24:37;14.40;99.90
22716;DHT22;11525;51.152;4.456;2023-05-08T02:27:04;14.40;99.90
22716;DHT22;11525;51.152;4.456;2023-05-08T02:29:31;14.40;99.90
22716;DHT22;11525;51.152;4.456;2023-05-08T02:31:57;14.40;99.90
22716;DHT22;11525;51.152;4.456;2023-05-08T02:34:26;14.40;99.90
22716;DHT22;11525;51.152;4.456;2023-05-08T02:36:52;14.40;99.90
22716;DHT22;11525;51.152;4.456;2023-05-08T02:39:21;14.40;99.90
22716;DHT22;11525;51.152;4.456;2023-05-08T02:41:49;14.50;99.90
22716;DHT22;11525;51.152;4.456;2023-05-08T02:44:15;14.40;99.90
22716;DHT22;11525;51.152;4.456;2023-05-08T02:47:03;14.30;99.90
22716;DHT22;11525;51.152;4.456;2023-05-08T02:49:53;14.30;99.90
22716;DHT22;11525;51.152;4.456;2023-05-08T02:52:28;14.30;99.90
22716;DHT22;11525;51.152;4.456;2023-05-08T03:00:26;14.20;99.90
22716;DHT22;11525;51.152;4.456;2023-05-08T03:02:56;14.10;99.90
22716;DHT22;11525;51.152;4.456;2023-05-08T03:05:29;14.10;99.90
22716;DHT22;11525;51.152;4.456;2023-05-08T03:07:59;14.10;99.90
22716;DHT22;11525;51.152;4.456;2023-05-08T03:10:33;14.10;99.90
22716;DHT22;11525;51.152;4.456;2023-05-08T03:13:05;14.10;99.90
22716;DHT22;11525;51.152;4.456;2023-05-08T03:15:45;14.10;99.90
22716;DHT22;11525;51.152;4.456;2023-05-08T03:18:18;14.10;99.90
22716;DHT22;11525;51.152;4.456;2023-05-08T03:20:46;14.10;99.90
22716;DHT22;11525;51.152;4.456;2023-05-08T03:23:14;14.00;99.90
22716;DHT22;11525;51.152;4.456;2023-05-08T03:25:42;14.00;99.90
22716;DHT22;11525;51.152;4.456;2023-05-08T03:28:09;13.90;99.90
22716;DHT22;11525;51.152;4.456;2023-05-08T03:30:36;13.90;99.90
22716;DHT22;11525;51.152;4.456;2023-05-08T03:33:06;13.90;99.90
22716;DHT22;11525;51.152;4.456;2023-05-08T03:35:35;13.80;99.90
22716;DHT22;11525;51.152;4.456;2023-05-08T03:38:04;13.80;99.90
22716;DHT22;11525;51.152;4.456;2023-05-08T03:40:32;13.80;99.90
22716;DHT22;11525;51.152;4.456;2023-05-08T03:43:05;13.70;99.90
22716;DHT22;11525;51.152;4.456;2023-05-08T03:45:34;13.60;99.90
22716;DHT22;11525;51.152;4.456;2023-05-08T03:48:02;13.70;99.90
22716;DHT22;11525;51.152;4.456;2023-05-08T03:50:28;13.70;99.90
22716;DHT22;11525;51.152;4.456;2023-05-08T03:52:56;13.60;99.90
22716;DHT22;11525;51.152;4.456;2023-05-08T03:55:22;13.60;99.90
22716;DHT22;11525;51.152;4.456;2023-05-08T04:03:17;13.70;99.90
22716;DHT22;11525;51.152;4.456;2023-05-08T04:05:50;13.60;99.90
22716;DHT22;11525;51.152;4.456;2023-05-08T04:08:30;13.50;99.90
22716;DHT22;11525;51.152;4.456;2023-05-08T04:11:17;13.40;99.90
22716;DHT22;11525;51.152;4.456;2023-05-08T04:13:55;13.40;99.90
22716;DHT22;11525;51.152;4.456;2023-05-08T04:16:27;13.50;99.90
22716;DHT22;11525;51.152;4.456;2023-05-08T04:18:59;13.70;99.90
22716;DHT22;11525;51.152;4.456;2023-05-08T04:21:28;13.70;99.90
22716;DHT22;11525;51.152;4.456;2023-05-08T04:23:57;13.80;99.90
22716;DHT22;11525;51.152;4.456;2023-05-08T04:26:23;13.90;99.90
22716;DHT22;11525;51.152;4.456;2023-05-08T04:28:50;13.90;99.90
22716;DHT22;11525;51.152;4.456;2023-05-08T04:31:16;14.00;99.90
22716;DHT22;11525;51.152;4.456;2023-05-08T04:33:43;14.00;99.90
22716;DHT22;11525;51.152;4.456;2023-05-08T04:36:13;14.00;99.90
22716;DHT22;11525;51.152;4.456;2023-05-08T04:38:39;14.10;99.90
22716;DHT22;11525;51.152;4.456;2023-05-08T04:41:06;14.10;99.90
22716;DHT22;11525;51.152;4.456;2023-05-08T04:43:32;14.20;99.90
22716;DHT22;11525;51.152;4.456;2023-05-08T04:45:58;14.30;99.90
22716;DHT22;11525;51.152;4.456;2023-05-08T04:48:23;14.30;99.90
22716;DHT22;11525;51.152;4.456;2023-05-08T04:50:50;14.40;99.90
22716;DHT22;11525;51.152;4.456;2023-05-08T04:53:15;14.50;99.90
22716;DHT22;11525;51.152;4.456;2023-05-08T04:55:41;14.50;99.90
22716;DHT22;11525;51.152;4.456;2023-05-08T04:58:07;14.50;99.90
22716;DHT22;11525;51.152;4.456;2023-05-08T05:00:34;14.50;99.90
22716;DHT22;11525;51.152;4.456;2023-05-08T05:03:00;14.60;99.90
22716;DHT22;11525;51.152;4.456;2023-05-08T05:05:26;14.70;99.90
22716;DHT22;11525;51.152;4.456;2023-05-08T05:07:51;14.80;99.90
22716;DHT22;11525;51.152;4.456;2023-05-08T05:10:17;14.80;99.90
22716;DHT22;11525;51.152;4.456;2023-05-08T05:12:43;14.80;99.90
22716;DHT22;11525;51.152;4.456;2023-05-08T05:15:09;14.80;99.90
22716;DHT22;11525;51.152;4.456;2023-05-08T05:17:34;14.90;99.90
22716;DHT22;11525;51.152;4.456;2023-05-08T05:20:00;14.90;99.90
22716;DHT22;11525;51.152;4.456;2023-05-08T05:22:26;15.10;99.90
22716;DHT22;11525;51.152;4.456;2023-05-08T05:24:53;15.00;99.90
22716;DHT22;11525;51.152;4.456;2023-05-08T05:27:18;14.90;99.90
22716;DHT22;11525;51.152;4.456;2023-05-08T05:29:44;14.90;99.90
22716;DHT22;11525;51.152;4.456;2023-05-08T05:32:10;14.70;99.90
22716;DHT22;11525;51.152;4.456;2023-05-08T05:34:36;14.80;99.90
22716;DHT22;11525;51.152;4.456;2023-05-08T05:37:02;14.80;99.90
22716;DHT22;11525;51.152;4.456;2023-05-08T05:39:27;14.80;99.90
22716;DHT22;11525;51.152;4.456;2023-05-08T05:41:53;14.90;99.90
22716;DHT22;11525;51.152;4.456;2023-05-08T05:44:19;15.00;99.90
22716;DHT22;11525;51.152;4.456;2023-05-08T05:46:44;15.00;99.90
22716;DHT22;11525;51.152;4.456;2023-05-08T05:49:10;14.90;99.90
22716;DHT22;11525;51.152;4.456;2023-05-08T05:51:36;14.80;99.90
22716;DHT22;11525;51.152;4.456;2023-05-08T05:54:02;14.80;99.90
22716;DHT22;11525;51.152;4.456;2023-05-08T05:56:28;14.90;99.90
22716;DHT22;11525;51.152;4.456;2023-05-08T05:58:53;14.90;99.90
22716;DHT22;11525;51.152;4.456;2023-05-08T06:01:19;14.80;99.90
22716;DHT22;11525;51.152;4.456;2023-05-08T06:03:45;14.90;99.90
22716;DHT22;11525;51.152;4.456;2023-05-08T06:06:11;15.00;99.90
22716;DHT22;11525;51.152;4.456;2023-05-08T06:08:37;15.20;99.90
22716;DHT22;11525;51.152;4.456;2023-05-08T06:11:03;15.20;99.90
22716;DHT22;11525;51.152;4.456;2023-05-08T06:13:29;15.30;99.90
22716;DHT22;11525;51.152;4.456;2023-05-08T06:15:55;15.30;99.90
22716;DHT22;11525;51.152;4.456;2023-05-08T06:18:21;15.30;99.90
22716;DHT22;11525;51.152;4.456;2023-05-08T06:20:47;15.30;99.90
22716;DHT22;11525;51.152;4.456;2023-05-08T06:23:13;15.40;99.90
22716;DHT22;11525;51.152;4.456;2023-05-08T06:25:39;15.40;99.90
22716;DHT22;11525;51.152;4.456;2023-05-08T06:28:05;15.40;99.90
22716;DHT22;11525;51.152;4.456;2023-05-08T06:30:33;15.60;99.90
22716;DHT22;11525;51.152;4.456;2023-05-08T06:32:58;15.80;99.90
22716;DHT22;11525;51.152;4.456;2023-05-08T06:35:24;16.00;99.90
22716;DHT22;11525;51.152;4.456;2023-05-08T06:37:50;16.10;99.90
22716;DHT22;11525;51.152;4.456;2023-05-08T06:40:15;16.00;99.90
22716;DHT22;11525;51.152;4.456;2023-05-08T06:42:41;15.90;99.90
22716;DHT22;11525;51.152;4.456;2023-05-08T06:45:08;15.80;99.90
22716;DHT22;11525;51.152;4.456;2023-05-08T06:47:34;15.80;99.90
22716;DHT22;11525;51.152;4.456;2023-05-08T06:50:00;16.10;99.90
22716;DHT22;11525;51.152;4.456;2023-05-08T06:52:25;16.40;99.90
22716;DHT22;11525;51.152;4.456;2023-05-08T06:54:51;16.60;99.90
22716;DHT22;11525;51.152;4.456;2023-05-08T06:57:17;17.00;99.90
22716;DHT22;11525;51.152;4.456;2023-05-08T06:59:42;17.20;99.90
22716;DHT22;11525;51.152;4.456;2023-05-08T07:02:08;17.40;99.90
22716;DHT22;11525;51.152;4.456;2023-05-08T07:04:35;17.50;99.90
22716;DHT22;11525;51.152;4.456;2023-05-08T07:07:01;17.70;99.90
22716;DHT22;11525;51.152;4.456;2023-05-08T07:09:27;17.50;99.90
22716;DHT22;11525;51.152;4.456;2023-05-08T07:11:53;17.40;99.90
22716;DHT22;11525;51.152;4.456;2023-05-08T07:14:18;17.40;99.90
22716;DHT22;11525;51.152;4.456;2023-05-08T07:16:44;17.40;99.90
22716;DHT22;11525;51.152;4.456;2023-05-08T07:19:10;17.50;99.90
22716;DHT22;11525;51.152;4.456;2023-05-08T07:21:36;17.60;99.90
22716;DHT22;11525;51.152;4.456;2023-05-08T07:24:01;17.60;99.90
22716;DHT22;11525;51.152;4.456;2023-05-08T07:26:27;17.50;99.90
22716;DHT22;11525;51.152;4.456;2023-05-08T07:28:53;17.50;99.90
22716;DHT22;11525;51.152;4.456;2023-05-08T07:31:19;17.50;99.90
22716;DHT22;11525;51.152;4.456;2023-05-08T07:33:45;17.40;99.90
22716;DHT22;11525;51.152;4.456;2023-05-08T07:36:11;17.50;99.90
22716;DHT22;11525;51.152;4.456;2023-05-08T07:38:37;17.80;99.90
22716;DHT22;11525;51.152;4.456;2023-05-08T07:41:03;17.90;99.90
22716;DHT22;11525;51.152;4.456;2023-05-08T07:43:30;18.00;99.90
22716;DHT22;11525;51.152;4.456;2023-05-08T07:45:56;17.90;99.90
22716;DHT22;11525;51.152;4.456;2023-05-08T07:48:22;17.70;99.90
22716;DHT22;11525;51.152;4.456;2023-05-08T07:50:50;17.50;99.90
22716;DHT22;11525;51.152;4.456;2023-05-08T07:53:16;17.30;99.90
22716;DHT22;11525;51.152;4.456;2023-05-08T07:55:42;17.30;99.90
22716;DHT22;11525;51.152;4.456;2023-05-08T07:58:08;17.40;99.90
22716;DHT22;11525;51.152;4.456;2023-05-08T08:00:34;17.60;99.90
22716;DHT22;11525;51.152;4.456;2023-05-08T08:03:00;17.70;99.90
22716;DHT22;11525;51.152;4.456;2023-05-08T08:05:25;17.80;99.90
22716;DHT22;11525;51.152;4.456;2023-05-08T08:07:51;18.20;99.90
22716;DHT22;11525;51.152;4.456;2023-05-08T08:10:17;18.40;99.90
22716;DHT22;11525;51.152;4.456;2023-05-08T08:12:42;18.90;99.90
22716;DHT22;11525;51.152;4.456;2023-05-08T08:15:08;18.90;99.90
22716;DHT22;11525;51.152;4.456;2023-05-08T08:17:34;19.20;99.90
22716;DHT22;11525;51.152;4.456;2023-05-08T08:20:01;19.20;99.90
22716;DHT22;11525;51.152;4.456;2023-05-08T08:22:26;19.20;99.90
22716;DHT22;11525;51.152;4.456;2023-05-08T08:24:54;19.00;99.90
22716;DHT22;11525;51.152;4.456;2023-05-08T08:27:19;18.80;99.90
22716;DHT22;11525;51.152;4.456;2023-05-08T08:29:45;18.80;99.90
22716;DHT22;11525;51.152;4.456;2023-05-08T08:32:11;18.70;99.90
22716;DHT22;11525;51.152;4.456;2023-05-08T08:34:37;18.80;99.90
22716;DHT22;11525;51.152;4.456;2023-05-08T08:37:04;18.80;99.90
22716;DHT22;11525;51.152;4.456;2023-05-08T08:39:33;19.00;99.90
22716;DHT22;11525;51.152;4.456;2023-05-08T08:42:00;19.20;99.90
22716;DHT22;11525;51.152;4.456;2023-05-08T08:44:26;19.40;99.90
22716;DHT22;11525;51.152;4.456;2023-05-08T08:46:52;19.30;99.90
22716;DHT22;11525;51.152;4.456;2023-05-08T08:49:28;19.40;99.90
22716;DHT22;11525;51.152;4.456;2023-05-08T08:52:02;19.30;99.90
22716;DHT22;11525;51.152;4.456;2023-05-08T08:54:29;19.30;99.90
22716;DHT22;11525;51.152;4.456;2023-05-08T08:56:56;19.30;99.90
22716;DHT22;11525;51.152;4.456;2023-05-08T08:59:25;19.20;99.90
22716;DHT22;11525;51.152;4.456;2023-05-08T09:01:55;19.30;99.90
22716;DHT22;11525;51.152;4.456;2023-05-08T09:04:21;19.30;99.90
22716;DHT22;11525;51.152;4.456;2023-05-08T09:06:52;19.30;99.90
22716;DHT22;11525;51.152;4.456;2023-05-08T09:09:19;19.30;99.90
22716;DHT22;11525;51.152;4.456;2023-05-08T09:11:45;19.30;99.90
22716;DHT22;11525;51.152;4.456;2023-05-08T09:14:11;19.40;99.90
22716;DHT22;11525;51.152;4.456;2023-05-08T09:16:37;19.30;99.90
22716;DHT22;11525;51.152;4.456;2023-05-08T09:19:04;19.20;99.90
22716;DHT22;11525;51.152;4.456;2023-05-08T09:21:30;19.20;99.90
22716;DHT22;11525;51.152;4.456;2023-05-08T09:24:04;19.40;99.90
22716;DHT22;11525;51.152;4.456;2023-05-08T09:26:36;19.40;99.90
22716;DHT22;11525;51.152;4.456;2023-05-08T09:29:16;19.50;99.90
22716;DHT22;11525;51.152;4.456;2023-05-08T09:31:44;19.50;99.90
22716;DHT22;11525;51.152;4.456;2023-05-08T09:34:20;19.70;99.90
22716;DHT22;11525;51.152;4.456;2023-05-08T09:36:48;20.20;99.90
22716;DHT22;11525;51.152;4.456;2023-05-08T09:39:24;21.10;99.90
22716;DHT22;11525;51.152;4.456;2023-05-08T09:42:04;21.30;99.90
22716;DHT22;11525;51.152;4.456;2023-05-08T09:44:49;21.50;99.90
22716;DHT22;11525;51.152;4.456;2023-05-08T09:47:17;21.30;99.90
22716;DHT22;11525;51.152;4.456;2023-05-08T09:50:05;21.10;99.90
22716;DHT22;11525;51.152;4.456;2023-05-08T09:52:32;21.10;99.90
22716;DHT22;11525;51.152;4.456;2023-05-08T09:55:07;20.60;99.90
22716;DHT22;11525;51.152;4.456;2023-05-08T09:57:39;20.60;99.90
22716;DHT22;11525;51.152;4.456;2023-05-08T10:00:10;20.50;99.90
22716;DHT22;11525;51.152;4.456;2023-05-08T10:02:38;20.50;99.90
22716;DHT22;11525;51.152;4.456;2023-05-08T10:05:22;20.80;99.90
22716;DHT22;11525;51.152;4.456;2023-05-08T10:07:47;21.10;99.90
22716;DHT22;11525;51.152;4.456;2023-05-08T10:10:13;21.20;99.90
22716;DHT22;11525;51.152;4.456;2023-05-08T10:12:39;21.40;99.90
22716;DHT22;11525;51.152;4.456;2023-05-08T10:15:06;21.10;99.90
22716;DHT22;11525;51.152;4.456;2023-05-08T10:17:39;21.00;99.90
22716;DHT22;11525;51.152;4.456;2023-05-08T10:20:09;20.90;99.90
22716;DHT22;11525;51.152;4.456;2023-05-08T10:22:37;21.00;99.90
22716;DHT22;11525;51.152;4.456;2023-05-08T10:25:09;21.10;99.90
22716;DHT22;11525;51.152;4.456;2023-05-08T10:30:25;22.20;99.90
22716;DHT22;11525;51.152;4.456;2023-05-08T10:32:52;22.30;99.90
22716;DHT22;11525;51.152;4.456;2023-05-08T10:35:20;22.20;99.90
22716;DHT22;11525;51.152;4.456;2023-05-08T10:37:47;22.50;99.90
22716;DHT22;11525;51.152;4.456;2023-05-08T10:40:13;22.50;99.90
22716;DHT22;11525;51.152;4.456;2023-05-08T10:42:40;22.50;99.90
22716;DHT22;11525;51.152;4.456;2023-05-08T10:45:07;22.50;99.90
22716;DHT22;11525;51.152;4.456;2023-05-08T10:55:35;22.70;99.90
22716;DHT22;11525;51.152;4.456;2023-05-08T10:58:02;22.70;99.90
22716;DHT22;11525;51.152;4.456;2023-05-08T11:03:28;23.10;99.90
22716;DHT22;11525;51.152;4.456;2023-05-08T11:05:55;23.20;99.90
22716;DHT22;11525;51.152;4.456;2023-05-08T11:08:25;23.00;99.90
22716;DHT22;11525;51.152;4.456;2023-05-08T11:13:35;23.20;99.90
22716;DHT22;11525;51.152;4.456;2023-05-08T11:16:02;23.40;99.90
22716;DHT22;11525;51.152;4.456;2023-05-08T11:18:28;24.00;99.90
22716;DHT22;11525;51.152;4.456;2023-05-08T11:20:58;24.10;99.90
22716;DHT22;11525;51.152;4.456;2023-05-08T11:23:31;23.90;99.90
22716;DHT22;11525;51.152;4.456;2023-05-08T11:25:59;23.60;99.90
22716;DHT22;11525;51.152;4.456;2023-05-08T11:28:33;23.50;99.90
22716;DHT22;11525;51.152;4.456;2023-05-08T11:31:03;23.60;99.90
22716;DHT22;11525;51.152;4.456;2023-05-08T11:33:31;23.10;99.90
22716;DHT22;11525;51.152;4.456;2023-05-08T11:36:20;22.80;99.90
22716;DHT22;11525;51.152;4.456;2023-05-08T11:39:07;22.90;99.90
22716;DHT22;11525;51.152;4.456;2023-05-08T11:41:34;23.10;99.90
22716;DHT22;11525;51.152;4.456;2023-05-08T11:46:40;22.70;99.90
22716;DHT22;11525;51.152;4.456;2023-05-08T11:49:13;22.50;99.90
22716;DHT22;11525;51.152;4.456;2023-05-08T11:51:41;22.20;99.90
22716;DHT22;11525;51.152;4.456;2023-05-08T11:54:13;22.40;99.90
22716;DHT22;11525;51.152;4.456;2023-05-08T11:56:40;22.70;99.90
22716;DHT22;11525;51.152;4.456;2023-05-08T11:59:06;23.20;99.90
22716;DHT22;11525;51.152;4.456;2023-05-08T12:01:36;23.10;99.90
22716;DHT22;11525;51.152;4.456;2023-05-08T12:04:10;23.40;99.90
22716;DHT22;11525;51.152;4.456;2023-05-08T12:06:39;22.90;99.90
22716;DHT22;11525;51.152;4.456;2023-05-08T12:09:16;22.90;99.90
22716;DHT22;11525;51.152;4.456;2023-05-08T12:11:43;22.70;99.90
22716;DHT22;11525;51.152;4.456;2023-05-08T12:14:10;22.50;99.90
22716;DHT22;11525;51.152;4.456;2023-05-08T12:16:37;22.60;99.90
22716;DHT22;11525;51.152;4.456;2023-05-08T12:19:13;22.40;99.90
22716;DHT22;11525;51.152;4.456;2023-05-08T12:21:45;22.50;99.90
22716;DHT22;11525;51.152;4.456;2023-05-08T12:24:14;22.20;99.90
22716;DHT22;11525;51.152;4.456;2023-05-08T12:26:41;22.20;99.90
22716;DHT22;11525;51.152;4.456;2023-05-08T12:29:07;22.10;99.90
22716;DHT22;11525;51.152;4.456;2023-05-08T12:31:34;22.40;99.90
22716;DHT22;11525;51.152;4.456;2023-05-08T12:34:04;22.30;99.90
22716;DHT22;11525;51.152;4.456;2023-05-08T12:36:36;22.10;99.90
22716;DHT22;11525;51.152;4.456;2023-05-08T12:39:10;22.10;99.90
22716;DHT22;11525;51.152;4.456;2023-05-08T12:41:41;22.00;99.90
22716;DHT22;11525;51.152;4.456;2023-05-08T12:44:24;22.40;99.90
22716;DHT22;11525;51.152;4.456;2023-05-08T12:46:55;22.70;99.90
22716;DHT22;11525;51.152;4.456;2023-05-08T12:49:30;22.70;99.90
22716;DHT22;11525;51.152;4.456;2023-05-08T12:52:06;22.80;99.90
22716;DHT22;11525;51.152;4.456;2023-05-08T12:54:38;22.90;99.90
22716;DHT22;11525;51.152;4.456;2023-05-08T12:57:13;22.90;99.90
22716;DHT22;11525;51.152;4.456;2023-05-08T12:59:39;22.90;99.90
22716;DHT22;11525;51.152;4.456;2023-05-08T13:02:18;22.90;99.90
22716;DHT22;11525;51.152;4.456;2023-05-08T13:04:44;22.80;99.90
22716;DHT22;11525;51.152;4.456;2023-05-08T13:07:10;22.70;99.90
22716;DHT22;11525;51.152;4.456;2023-05-08T13:09:36;22.40;99.90
22716;DHT22;11525;51.152;4.456;2023-05-08T13:12:02;22.20;99.90
22716;DHT22;11525;51.152;4.456;2023-05-08T13:14:28;22.50;99.90
22716;DHT22;11525;51.152;4.456;2023-05-08T13:16:54;22.50;99.90
22716;DHT22;11525;51.152;4.456;2023-05-08T13:19:19;22.40;99.90
22716;DHT22;11525;51.152;4.456;2023-05-08T13:21:45;22.70;99.90
22716;DHT22;11525;51.152;4.456;2023-05-08T13:24:15;22.60;99.90
22716;DHT22;11525;51.152;4.456;2023-05-08T13:26:41;22.60;99.90
22716;DHT22;11525;51.152;4.456;2023-05-08T13:29:07;22.60;99.90
22716;DHT22;11525;51.152;4.456;2023-05-08T13:31:33;22.60;99.90
22716;DHT22;11525;51.152;4.456;2023-05-08T13:33:58;22.50;99.90
22716;DHT22;11525;51.152;4.456;2023-05-08T13:36:24;22.50;99.90
22716;DHT22;11525;51.152;4.456;2023-05-08T13:38:51;22.40;99.90
22716;DHT22;11525;51.152;4.456;2023-05-08T13:41:19;22.40;99.90
22716;DHT22;11525;51.152;4.456;2023-05-08T13:43:46;22.50;99.90
22716;DHT22;11525;51.152;4.456;2023-05-08T13:46:12;22.90;99.90
22716;DHT22;11525;51.152;4.456;2023-05-08T13:48:37;22.80;99.90
22716;DHT22;11525;51.152;4.456;2023-05-08T13:51:03;22.60;99.90
22716;DHT22;11525;51.152;4.456;2023-05-08T13:53:29;22.40;99.90
22716;DHT22;11525;51.152;4.456;2023-05-08T13:55:54;22.30;99.90
22716;DHT22;11525;51.152;4.456;2023-05-08T13:58:21;22.40;99.90
22716;DHT22;11525;51.152;4.456;2023-05-08T14:00:46;22.20;99.90
22716;DHT22;11525;51.152;4.456;2023-05-08T14:03:12;22.10;99.90
22716;DHT22;11525;51.152;4.456;2023-05-08T14:05:38;22.00;99.90
22716;DHT22;11525;51.152;4.456;2023-05-08T14:08:04;22.10;99.90
22716;DHT22;11525;51.152;4.456;2023-05-08T14:10:29;21.90;99.90
22716;DHT22;11525;51.152;4.456;2023-05-08T14:12:55;21.80;99.90
22716;DHT22;11525;51.152;4.456;2023-05-08T14:15:21;21.80;99.90
22716;DHT22;11525;51.152;4.456;2023-05-08T14:17:46;21.90;99.90
22716;DHT22;11525;51.152;4.456;2023-05-08T14:20:12;22.10;99.90
22716;DHT22;11525;51.152;4.456;2023-05-08T14:22:38;22.20;99.90
22716;DHT22;11525;51.152;4.456;2023-05-08T14:25:05;22.30;99.90
22716;DHT22;11525;51.152;4.456;2023-05-08T14:27:31;22.30;99.90
22716;DHT22;11525;51.152;4.456;2023-05-08T14:29:57;22.10;99.90
22716;DHT22;11525;51.152;4.456;2023-05-08T14:32:23;22.10;99.90
22716;DHT22;11525;51.152;4.456;2023-05-08T14:34:49;22.20;99.90
22716;DHT22;11525;51.152;4.456;2023-05-08T14:37:14;22.10;99.90
22716;DHT22;11525;51.152;4.456;2023-05-08T14:39:42;22.30;99.90
22716;DHT22;11525;51.152;4.456;2023-05-08T14:42:07;22.60;99.90
22716;DHT22;11525;51.152;4.456;2023-05-08T14:44:33;22.70;99.90
22716;DHT22;11525;51.152;4.456;2023-05-08T14:46:59;22.60;99.90
22716;DHT22;11525;51.152;4.456;2023-05-08T14:49:25;22.70;99.90
22716;DHT22;11525;51.152;4.456;2023-05-08T14:51:50;22.50;99.90
22716;DHT22;11525;51.152;4.456;2023-05-08T14:54:16;22.30;99.90
22716;DHT22;11525;51.152;4.456;2023-05-08T14:56:42;22.20;99.90
22716;DHT22;11525;51.152;4.456;2023-05-08T14:59:07;22.10;99.90
22716;DHT22;11525;51.152;4.456;2023-05-08T15:01:34;21.90;99.90
22716;DHT22;11525;51.152;4.456;2023-05-08T15:03:59;21.70;99.90
22716;DHT22;11525;51.152;4.456;2023-05-08T15:06:25;21.80;99.90
22716;DHT22;11525;51.152;4.456;2023-05-08T15:08:55;21.60;99.90
22716;DHT22;11525;51.152;4.456;2023-05-08T15:11:20;21.20;99.90
22716;DHT22;11525;51.152;4.456;2023-05-08T15:13:47;20.80;99.90
22716;DHT22;11525;51.152;4.456;2023-05-08T15:16:13;20.60;99.90
22716;DHT22;11525;51.152;4.456;2023-05-08T15:18:38;20.40;99.90
22716;DHT22;11525;51.152;4.456;2023-05-08T15:21:04;20.50;99.90
22716;DHT22;11525;51.152;4.456;2023-05-08T15:23:30;20.60;99.90
22716;DHT22;11525;51.152;4.456;2023-05-08T15:25:56;20.90;99.90
22716;DHT22;11525;51.152;4.456;2023-05-08T15:28:21;21.00;99.90
22716;DHT22;11525;51.152;4.456;2023-05-08T15:30:47;21.20;99.90
22716;DHT22;11525;51.152;4.456;2023-05-08T15:33:13;21.20;99.90
22716;DHT22;11525;51.152;4.456;2023-05-08T15:35:39;21.10;99.90
22716;DHT22;11525;51.152;4.456;2023-05-08T15:38:06;21.00;99.90
22716;DHT22;11525;51.152;4.456;2023-05-08T15:40:32;21.00;99.90
22716;DHT22;11525;51.152;4.456;2023-05-08T15:42:58;20.80;99.90
22716;DHT22;11525;51.152;4.456;2023-05-08T15:45:24;20.90;99.90
22716;DHT22;11525;51.152;4.456;2023-05-08T15:47:50;20.90;99.90
22716;DHT22;11525;51.152;4.456;2023-05-08T15:50:16;20.80;99.90
22716;DHT22;11525;51.152;4.456;2023-05-08T15:52:42;20.40;99.90
22716;DHT22;11525;51.152;4.456;2023-05-08T15:55:07;20.30;99.90
22716;DHT22;11525;51.152;4.456;2023-05-08T15:57:33;20.30;99.90
22716;DHT22;11525;51.152;4.456;2023-05-08T15:59:59;20.30;99.90
22716;DHT22;11525;51.152;4.456;2023-05-08T16:02:25;20.40;99.90
22716;DHT22;11525;51.152;4.456;2023-05-08T16:04:50;20.30;99.90
22716;DHT22;11525;51.152;4.456;2023-05-08T16:07:16;20.00;99.90
22716;DHT22;11525;51.152;4.456;2023-05-08T16:09:42;19.90;99.90
22716;DHT22;11525;51.152;4.456;2023-05-08T16:12:08;19.80;99.90
22716;DHT22;11525;51.152;4.456;2023-05-08T16:14:33;19.90;99.90
22716;DHT22;11525;51.152;4.456;2023-05-08T16:17:02;19.80;99.90
22716;DHT22;11525;51.152;4.456;2023-05-08T16:19:28;19.70;99.90